createdAt,value
2023-05-23T00:01:37.549Z,0.07
2023-05-23T00:03:34.326Z,0.07
2023-05-23T00:05:34.582Z,0.07
2023-05-23T00:07:34.352Z,0.08
2023-05-23T00:09:34.230Z,0.08
2023-05-23T00:11:34.062Z,0.08
2023-05-23T00:13:33.464Z,72.78
2023-05-23T00:15:34.280Z,72.78
2023-05-23T00:17:34.211Z,72.78
2023-05-23T00:19:35.149Z,0.06
2023-05-23T00:21:33.987Z,0.06
2023-05-23T00:23:33.373Z,0.06
2023-05-23T00:25:33.844Z,0.06
2023-05-23T00:27:33.504Z,0.06
2023-05-23T00:29:34.779Z,0.06
2023-05-23T00:31:34.155Z,0.06
2023-05-23T00:33:34.434Z,0.06
2023-05-23T00:35:33.700Z,0.06
2023-05-23T00:37:34.299Z,0.06
2023-05-23T00:39:33.872Z,0.06
2023-05-23T00:41:33.528Z,0.06
2023-05-23T00:43:34.045Z,70.3
2023-05-23T00:45:33.714Z,70.3
2023-05-23T00:47:34.591Z,70.3
2023-05-23T00:49:34.003Z,0.06
2023-05-23T00:51:33.507Z,0.06
2023-05-23T00:53:34.188Z,0.06
2023-05-23T00:55:33.873Z,63.18
2023-05-23T00:57:34.247Z,63.18
2023-05-23T00:59:33.700Z,63.18
2023-05-23T01:01:38.161Z,0.06
2023-05-23T01:03:35.443Z,0.06
2023-05-23T01:05:33.507Z,0.06
2023-05-23T01:07:33.955Z,0.06
2023-05-23T01:09:33.493Z,0.06
2023-05-23T01:11:34.300Z,0.06
2023-05-23T01:13:33.489Z,0.05
2023-05-23T01:15:34.232Z,0.05
2023-05-23T01:17:35.631Z,0.05
2023-05-23T01:19:34.672Z,50.41
2023-05-23T01:21:34.328Z,50.41
2023-05-23T01:23:33.515Z,50.41
2023-05-23T01:25:34.175Z,0.05
2023-05-23T01:27:33.430Z,0.05
2023-05-23T01:29:33.963Z,0.05
2023-05-23T01:31:33.841Z,0.04
2023-05-23T01:33:35.068Z,0.04
2023-05-23T01:35:33.706Z,0.04
2023-05-23T01:37:33.165Z,0.04
2023-05-23T01:39:33.887Z,0.04
2023-05-23T01:41:33.656Z,0.04
2023-05-23T01:43:34.225Z,0.04
2023-05-23T01:45:33.505Z,0.04
2023-05-23T01:47:34.590Z,0.04
2023-05-23T01:49:34.023Z,0.04
2023-05-23T01:51:33.602Z,0.04
2023-05-23T01:53:33.890Z,0.04
2023-05-23T01:55:33.961Z,0.04
2023-05-23T01:57:34.008Z,0.04
2023-05-23T01:59:33.717Z,0.04
2023-05-23T02:01:37.722Z,0.04
2023-05-23T02:03:34.888Z,0.04
2023-05-23T02:05:33.520Z,0.04
2023-05-23T02:07:34.032Z,0.04
2023-05-23T02:09:33.749Z,0.04
2023-05-23T02:11:34.358Z,0.04
2023-05-23T02:13:33.607Z,0.04
2023-05-23T02:15:34.008Z,0.04
2023-05-23T02:17:33.907Z,0.04
2023-05-23T02:19:34.460Z,0.04
2023-05-23T02:21:35.447Z,0.04
2023-05-23T02:23:33.988Z,0.04
2023-05-23T02:25:33.450Z,0.04
2023-05-23T02:27:33.806Z,0.04
2023-05-23T02:29:34.134Z,0.04
2023-05-23T02:31:34.264Z,34.63
2023-05-23T02:33:34.588Z,34.63
2023-05-23T02:35:33.644Z,34.63
2023-05-23T02:37:33.328Z,0.03
2023-05-23T02:39:34.186Z,0.03
2023-05-23T02:41:33.631Z,0.03
2023-05-23T02:43:33.866Z,0.03
2023-05-23T02:45:33.357Z,0.03
2023-05-23T02:47:34.535Z,0.03
2023-05-23T02:49:34.246Z,0.03
2023-05-23T02:51:34.098Z,0.03
2023-05-23T02:53:33.579Z,0.03
2023-05-23T02:55:33.986Z,0.04
2023-05-23T02:57:33.364Z,0.04
2023-05-23T02:59:33.900Z,0.04
2023-05-23T03:01:40.991Z,0.04
2023-05-23T03:03:35.087Z,0.04
2023-05-23T03:05:33.869Z,0.04
2023-05-23T03:07:50.996Z,0.04
2023-05-23T03:09:33.816Z,0.04
2023-05-23T03:11:34.380Z,0.04
2023-05-23T03:13:33.926Z,34.63
2023-05-23T03:15:34.302Z,34.63
2023-05-23T03:17:34.511Z,34.63
2023-05-23T03:19:36.417Z,0.03
2023-05-23T03:21:34.330Z,0.03
2023-05-23T03:23:33.919Z,0.03
2023-05-23T03:25:34.169Z,30.19
2023-05-23T03:27:33.765Z,30.19
2023-05-23T03:29:34.472Z,30.19
2023-05-23T03:31:34.239Z,0.03
2023-05-23T03:33:33.981Z,0.03
2023-05-23T03:35:34.404Z,0.03
2023-05-23T03:37:33.765Z,0.03
2023-05-23T03:39:34.362Z,0.03
2023-05-23T03:41:34.572Z,0.03
2023-05-23T03:43:33.907Z,31.63
2023-05-23T03:45:34.422Z,31.63
2023-05-23T03:47:34.286Z,31.63
2023-05-23T03:49:33.778Z,30.19
2023-05-23T03:51:34.404Z,30.19
2023-05-23T03:53:36.444Z,30.19
2023-05-23T03:55:33.536Z,0.03
2023-05-23T03:57:33.948Z,0.03
2023-05-23T03:59:34.531Z,0.03
2023-05-23T04:01:37.152Z,0.03
2023-05-23T04:03:35.297Z,0.03
2023-05-23T04:05:34.227Z,0.03
2023-05-23T04:07:35.095Z,0.03
2023-05-23T04:09:33.995Z,0.03
2023-05-23T04:11:34.662Z,0.03
2023-05-23T04:13:34.223Z,0.03
2023-05-23T04:15:33.496Z,0.03
2023-05-23T04:17:34.708Z,0.03
2023-05-23T04:19:34.092Z,28.8
2023-05-23T04:21:34.605Z,28.8
2023-05-23T04:23:34.095Z,28.8
2023-05-23T04:25:33.424Z,0.03
2023-05-23T04:27:33.917Z,0.03
2023-05-23T04:29:33.686Z,0.03
2023-05-23T04:31:34.537Z,31.63
2023-05-23T04:33:34.015Z,31.63
2023-05-23T04:35:37.276Z,31.63
2023-05-23T04:37:33.879Z,0.03
2023-05-23T04:39:33.506Z,0.03
2023-05-23T04:41:35.787Z,0.03
2023-05-23T04:43:35.496Z,0.03
2023-05-23T04:45:34.155Z,0.03
2023-05-23T04:47:36.351Z,0.03
2023-05-23T04:49:34.493Z,0.03
2023-05-23T04:51:34.260Z,0.03
2023-05-23T04:53:33.517Z,0.03
2023-05-23T04:55:34.373Z,0.03
2023-05-23T04:57:33.880Z,0.03
2023-05-23T04:59:34.341Z,0.03
2023-05-23T05:01:38.250Z,27.45
2023-05-23T05:03:33.929Z,27.45
2023-05-23T05:05:34.698Z,27.45
2023-05-23T05:07:33.810Z,0.03
2023-05-23T05:09:34.160Z,0.03
2023-05-23T05:11:33.939Z,0.03
2023-05-23T05:13:34.302Z,0.03
2023-05-23T05:15:33.975Z,0.03
2023-05-23T05:17:34.931Z,0.03
2023-05-23T05:19:34.266Z,27.45
2023-05-23T05:21:33.631Z,27.45
2023-05-23T05:23:34.059Z,27.45
2023-05-23T05:25:33.993Z,27.45
2023-05-23T05:27:34.542Z,27.45
2023-05-23T05:29:34.027Z,27.45
2023-05-23T05:31:33.996Z,0.03
2023-05-23T05:33:34.245Z,0.03
2023-05-23T05:35:35.674Z,0.03
2023-05-23T05:37:34.316Z,31.63
2023-05-23T05:39:33.418Z,31.63
2023-05-23T05:41:34.261Z,31.63
2023-05-23T05:43:33.724Z,0.03
2023-05-23T05:45:34.307Z,0.03
2023-05-23T05:47:34.459Z,0.03
2023-05-23T05:49:35.568Z,0.03
2023-05-23T05:51:34.033Z,0.03
2023-05-23T05:53:33.434Z,0.03
2023-05-23T05:55:34.045Z,30.19
2023-05-23T05:57:33.453Z,30.19
2023-05-23T05:59:33.923Z,30.19
2023-05-23T06:01:37.582Z,0.03
2023-05-23T06:03:35.294Z,0.03
2023-05-23T06:05:34.325Z,0.03
2023-05-23T06:07:33.601Z,30.19
2023-05-23T06:09:33.851Z,30.19
2023-05-23T06:11:35.111Z,30.19
2023-05-23T06:13:34.133Z,30.19
2023-05-23T06:15:36.299Z,30.19
2023-05-23T06:17:34.642Z,30.19
2023-05-23T06:19:34.332Z,0.03
2023-05-23T06:21:34.810Z,0.03
2023-05-23T06:23:33.941Z,0.03
2023-05-23T06:25:33.588Z,30.19
2023-05-23T06:27:34.039Z,30.19
2023-05-23T06:29:33.549Z,30.19
2023-05-23T06:31:35.393Z,30.19
2023-05-23T06:33:34.605Z,30.19
2023-05-23T06:35:34.376Z,30.19
2023-05-23T06:37:33.902Z,0.03
2023-05-23T06:39:33.322Z,0.03
2023-05-23T06:41:34.263Z,0.03
2023-05-23T06:43:34.064Z,27.45
2023-05-23T06:45:33.533Z,27.45
2023-05-23T06:47:37.827Z,27.45
2023-05-23T06:49:49.443Z,0.03
2023-05-23T06:51:34.700Z,0.03
2023-05-23T06:53:33.826Z,0.03
2023-05-23T06:55:34.072Z,28.8
2023-05-23T06:57:33.895Z,28.8
2023-05-23T06:59:33.657Z,28.8
2023-05-23T07:01:38.346Z,0.03
2023-05-23T07:03:34.246Z,0.03
2023-05-23T07:05:33.837Z,0.03
2023-05-23T07:07:34.125Z,26.14
2023-05-23T07:09:33.676Z,26.14
2023-05-23T07:11:34.480Z,26.14
2023-05-23T07:13:33.718Z,0.03
2023-05-23T07:15:34.223Z,0.03
2023-05-23T07:17:34.555Z,0.03
2023-05-23T07:19:36.822Z,31.63
2023-05-23T07:21:34.184Z,31.63
2023-05-23T07:23:33.469Z,31.63
2023-05-23T07:25:34.414Z,0.03
2023-05-23T07:27:35.261Z,0.03
2023-05-23T07:29:34.123Z,0.03
2023-05-23T07:31:34.533Z,0.03
2023-05-23T07:33:33.994Z,0.03
2023-05-23T07:35:34.332Z,0.03
2023-05-23T07:37:34.252Z,33.1
2023-05-23T07:39:34.280Z,33.1
2023-05-23T07:41:48.956Z,33.1
2023-05-23T07:43:34.005Z,0.03
2023-05-23T07:45:34.335Z,0.03
2023-05-23T07:47:33.882Z,0.03
2023-05-23T07:49:34.219Z,0.03
2023-05-23T07:51:33.871Z,0.03
2023-05-23T07:53:34.158Z,0.03
2023-05-23T07:55:37.011Z,0.03
2023-05-23T07:57:34.294Z,0.03
2023-05-23T07:59:33.967Z,0.03
2023-05-23T08:01:39.416Z,36.19
2023-05-23T08:03:35.029Z,36.19
2023-05-23T08:05:34.191Z,36.19
2023-05-23T08:07:53.868Z,0.03
2023-05-23T08:09:34.128Z,0.03
2023-05-23T08:11:34.064Z,0.03
2023-05-23T08:13:33.817Z,0.03
2023-05-23T08:15:50.320Z,0.03
2023-05-23T08:17:35.153Z,0.03
2023-05-23T08:19:35.239Z,0.04
2023-05-23T08:21:34.021Z,0.04
2023-05-23T08:23:33.521Z,0.04
2023-05-23T08:25:35.551Z,0.04
2023-05-23T08:27:33.484Z,0.04
2023-05-23T08:29:34.193Z,0.04
2023-05-23T08:31:36.615Z,42.92
2023-05-23T08:33:34.951Z,42.92
2023-05-23T08:35:35.594Z,42.92
2023-05-23T08:37:34.590Z,0.04
2023-05-23T08:39:36.869Z,0.04
2023-05-23T08:41:33.861Z,0.04
2023-05-23T08:43:34.565Z,0.04
2023-05-23T08:45:36.954Z,0.04
2023-05-23T08:47:34.411Z,0.04
2023-05-23T08:49:34.262Z,0.04
2023-05-23T08:51:34.005Z,0.04
2023-05-23T08:53:34.366Z,0.04
2023-05-23T08:55:33.885Z,0.04
2023-05-23T08:57:33.399Z,0.04
2023-05-23T08:59:34.077Z,0.04
2023-05-23T09:01:39.150Z,39.46
2023-05-23T09:03:34.212Z,39.46
2023-05-23T09:05:34.286Z,39.46
2023-05-23T09:07:33.977Z,36.19
2023-05-23T09:09:34.221Z,36.19
2023-05-23T09:11:39.631Z,36.19
2023-05-23T09:13:33.658Z,0.04
2023-05-23T09:15:34.070Z,0.04
2023-05-23T09:17:36.411Z,0.04
2023-05-23T09:19:34.824Z,0.03
2023-05-23T09:21:33.747Z,0.03
2023-05-23T09:23:37.458Z,0.03
2023-05-23T09:25:33.756Z,36.19
2023-05-23T09:27:33.390Z,36.19
2023-05-23T09:29:38.080Z,36.19
2023-05-23T09:31:34.193Z,34.63
2023-05-23T09:33:37.665Z,34.63
2023-05-23T09:35:34.252Z,34.63
2023-05-23T09:37:33.710Z,0.03
2023-05-23T09:39:37.140Z,0.03
2023-05-23T09:41:34.252Z,0.03
2023-05-23T09:43:33.542Z,0.03
2023-05-23T09:45:37.697Z,0.03
2023-05-23T09:47:34.226Z,0.03
2023-05-23T09:49:34.918Z,36.19
2023-05-23T09:51:36.241Z,36.19
2023-05-23T09:53:33.496Z,36.19
2023-05-23T09:55:34.173Z,0.04
2023-05-23T09:57:33.716Z,0.04
2023-05-23T09:59:34.248Z,0.04
2023-05-23T10:01:38.857Z,0.04
2023-05-23T10:03:34.114Z,0.04
2023-05-23T10:05:34.439Z,0.04
2023-05-23T10:07:33.920Z,0.03
2023-05-23T10:09:33.535Z,0.03
2023-05-23T10:11:34.107Z,0.03
2023-05-23T10:13:33.768Z,39.46
2023-05-23T10:15:33.469Z,39.46
2023-05-23T10:17:34.723Z,39.46
2023-05-23T10:19:34.326Z,0.04
2023-05-23T10:21:33.468Z,0.04
2023-05-23T10:23:34.096Z,0.04
2023-05-23T10:25:33.765Z,44.72
2023-05-23T10:27:34.280Z,44.72
2023-05-23T10:29:36.691Z,44.72
2023-05-23T10:31:33.829Z,0.04
2023-05-23T10:33:34.349Z,0.04
2023-05-23T10:35:33.993Z,0.04
2023-05-23T10:37:33.571Z,0.03
2023-05-23T10:39:37.344Z,0.03
2023-05-23T10:41:34.418Z,0.03
2023-05-23T10:43:34.107Z,0.02
2023-05-23T10:45:34.757Z,0.02
2023-05-23T10:47:35.258Z,0.02
2023-05-23T10:49:33.739Z,0.02
2023-05-23T10:51:34.394Z,0.02
2023-05-23T10:53:33.893Z,0.02
2023-05-23T10:55:34.205Z,0.02
2023-05-23T10:57:34.924Z,0.02
2023-05-23T10:59:34.321Z,0.02
2023-05-23T11:01:37.976Z,0.02
2023-05-23T11:03:34.669Z,0.02
2023-05-23T11:05:34.480Z,0.02
2023-05-23T11:07:34.122Z,0.02
2023-05-23T11:09:46.480Z,0.02
2023-05-23T11:11:34.521Z,0.02
2023-05-23T11:13:33.915Z,0.02
2023-05-23T11:15:34.581Z,0.02
2023-05-23T11:17:34.886Z,0.02
2023-05-23T11:19:34.335Z,0.02
2023-05-23T11:21:34.357Z,0.02
2023-05-23T11:23:33.617Z,0.02
2023-05-23T11:25:34.092Z,0.02
2023-05-23T11:27:33.662Z,0.02
2023-05-23T11:29:34.202Z,0.02
2023-05-23T11:31:34.962Z,0.03
2023-05-23T11:33:38.702Z,0.03
2023-05-23T11:35:33.701Z,0.03
2023-05-23T11:37:33.553Z,28.8
2023-05-23T11:39:33.951Z,28.8
2023-05-23T11:41:34.073Z,28.8
2023-05-23T11:43:33.541Z,60.92
2023-05-23T11:45:34.253Z,60.92
2023-05-23T11:47:34.168Z,60.92
2023-05-23T11:49:34.371Z,67.87
2023-05-23T11:51:34.017Z,67.87
2023-05-23T11:53:33.712Z,67.87
2023-05-23T11:55:38.484Z,0.05
2023-05-23T11:57:33.520Z,0.05
2023-05-23T11:59:34.225Z,0.05
2023-05-23T12:01:41.499Z,30.19
2023-05-23T12:03:35.119Z,30.19
2023-05-23T12:05:34.832Z,30.19
2023-05-23T12:07:35.105Z,31.63
2023-05-23T12:09:34.314Z,31.63
2023-05-23T12:11:34.140Z,31.63
2023-05-23T12:13:33.499Z,0.04
2023-05-23T12:15:35.652Z,0.04
2023-05-23T12:17:35.115Z,0.04
2023-05-23T12:19:34.852Z,56.56
2023-05-23T12:21:34.990Z,56.56
2023-05-23T12:23:34.981Z,56.56
2023-05-23T12:25:34.092Z,63.18
2023-05-23T12:27:33.777Z,63.18
2023-05-23T12:29:35.101Z,63.18
2023-05-23T12:31:34.695Z,0.05
2023-05-23T12:33:34.098Z,0.05
2023-05-23T12:35:33.660Z,0.05
2023-05-23T12:37:54.658Z,0.03
2023-05-23T12:39:33.912Z,0.03
2023-05-23T12:41:34.659Z,0.03
2023-05-23T12:43:34.033Z,28.8
2023-05-23T12:45:33.781Z,28.8
2023-05-23T12:47:35.472Z,28.8
2023-05-23T12:49:34.636Z,0.03
2023-05-23T12:51:34.442Z,0.03
2023-05-23T12:53:37.028Z,0.03
2023-05-23T12:55:33.611Z,0.02
2023-05-23T12:57:34.066Z,0.02
2023-05-23T12:59:33.667Z,0.02
2023-05-23T13:01:38.460Z,0.02
2023-05-23T13:03:34.248Z,0.02
2023-05-23T13:05:33.676Z,0.02
2023-05-23T13:07:34.235Z,0.03
2023-05-23T13:09:33.619Z,0.03
2023-05-23T13:11:34.525Z,0.03
2023-05-23T13:13:33.818Z,0.03
2023-05-23T13:15:34.544Z,0.03
2023-05-23T13:17:34.554Z,0.03
2023-05-23T13:19:34.648Z,27.45
2023-05-23T13:21:34.057Z,27.45
2023-05-23T13:23:33.251Z,27.45
2023-05-23T13:25:34.077Z,0.03
2023-05-23T13:27:33.446Z,0.03
2023-05-23T13:29:34.221Z,0.03
2023-05-23T13:31:34.766Z,22.46
2023-05-23T13:33:37.672Z,22.46
2023-05-23T13:35:33.833Z,22.46
2023-05-23T13:37:33.535Z,21.32
2023-05-23T13:39:35.929Z,21.32
2023-05-23T13:41:36.331Z,21.32
2023-05-23T13:43:34.302Z,0.02
2023-05-23T13:45:34.084Z,0.02
2023-05-23T13:47:36.346Z,0.02
2023-05-23T13:49:34.170Z,0.02
2023-05-23T13:51:34.677Z,0.02
2023-05-23T13:53:35.687Z,0.02
2023-05-23T13:55:33.855Z,0.02
2023-05-23T13:57:33.988Z,0.02
2023-05-23T13:59:33.456Z,0.02
2023-05-23T14:01:37.757Z,20.21
2023-05-23T14:03:34.259Z,20.21
2023-05-23T14:05:33.671Z,20.21
2023-05-23T14:07:33.906Z,0.02
2023-05-23T14:09:35.093Z,0.02
2023-05-23T14:11:34.356Z,0.02
2023-05-23T14:13:33.566Z,23.65
2023-05-23T14:15:34.774Z,23.65
2023-05-23T14:17:34.371Z,23.65
2023-05-23T14:19:34.994Z,0.02
2023-05-23T14:21:34.262Z,0.02
2023-05-23T14:23:33.740Z,0.02
2023-05-23T14:25:34.158Z,23.65
2023-05-23T14:27:34.568Z,23.65
2023-05-23T14:29:33.222Z,23.65
2023-05-23T14:31:34.549Z,0.02
2023-05-23T14:33:34.687Z,0.02
2023-05-23T14:35:34.297Z,0.02
2023-05-23T14:37:33.815Z,21.32
2023-05-23T14:39:33.924Z,21.32
2023-05-23T14:41:34.406Z,21.32
2023-05-23T14:43:33.842Z,20.21
2023-05-23T14:45:33.750Z,20.21
2023-05-23T14:47:34.554Z,20.21
2023-05-23T14:49:34.067Z,0.02
2023-05-23T14:52:01.663Z,0.02
2023-05-23T14:53:33.568Z,0.02
2023-05-23T14:55:34.034Z,19.14
2023-05-23T14:57:35.942Z,19.14
2023-05-23T14:59:33.754Z,19.14
2023-05-23T15:01:40.204Z,17.1
2023-05-23T15:03:34.319Z,17.1
2023-05-23T15:05:34.441Z,17.1
2023-05-23T15:07:34.240Z,17.1
2023-05-23T15:09:33.865Z,17.1
2023-05-23T15:11:34.305Z,17.1
2023-05-23T15:13:34.107Z,19.14
2023-05-23T15:15:33.769Z,19.14
2023-05-23T15:17:37.320Z,19.14
2023-05-23T15:19:50.564Z,0.02
2023-05-23T15:21:36.533Z,0.02
2023-05-23T15:23:56.491Z,0.02
2023-05-23T15:25:59.959Z,18.1
2023-05-23T15:27:43.984Z,18.1
2023-05-23T15:29:35.331Z,18.1
2023-05-23T15:31:33.836Z,0.02
2023-05-23T15:33:36.634Z,0.02
2023-05-23T15:35:33.673Z,0.02
2023-05-23T15:37:34.064Z,0.02
2023-05-23T15:39:35.527Z,0.02
2023-05-23T15:41:33.582Z,0.02
2023-05-23T15:43:33.792Z,22.46
2023-05-23T15:45:36.074Z,22.46
2023-05-23T15:47:34.936Z,22.46
2023-05-23T15:49:50.383Z,0.02
2023-05-23T15:51:34.250Z,0.02
2023-05-23T15:53:40.126Z,0.02
2023-05-23T15:55:33.745Z,0.02
2023-05-23T15:57:34.102Z,0.02
2023-05-23T15:59:33.292Z,0.02
2023-05-23T16:01:37.405Z,0.02
2023-05-23T16:03:34.051Z,0.02
2023-05-23T16:05:34.297Z,0.02
2023-05-23T16:07:33.755Z,0.02
2023-05-23T16:09:33.339Z,0.02
2023-05-23T16:11:34.063Z,0.02
2023-05-23T16:13:33.768Z,24.88
2023-05-23T16:15:33.965Z,24.88
2023-05-23T16:17:33.960Z,24.88
2023-05-23T16:19:34.947Z,0.03
2023-05-23T16:21:33.763Z,0.03
2023-05-23T16:23:33.476Z,0.03
2023-05-23T16:25:33.775Z,23.65
2023-05-23T16:27:33.236Z,23.65
2023-05-23T16:29:34.128Z,23.65
2023-05-23T16:31:35.860Z,0.03
2023-05-23T16:33:34.680Z,0.03
2023-05-23T16:35:40.578Z,0.03
2023-05-23T16:37:34.136Z,27.45
2023-05-23T16:39:33.650Z,27.45
2023-05-23T16:41:34.497Z,27.45
2023-05-23T16:43:33.968Z,0.02
2023-05-23T16:45:34.204Z,0.02
2023-05-23T16:47:34.405Z,0.02
2023-05-23T16:49:34.067Z,0.02
2023-05-23T16:51:34.616Z,0.02
2023-05-23T16:53:34.043Z,0.02
2023-05-23T16:55:33.775Z,24.88
2023-05-23T16:57:34.144Z,24.88
2023-05-23T16:59:34.004Z,24.88
2023-05-23T17:01:38.904Z,22.46
2023-05-23T17:03:34.949Z,22.46
2023-05-23T17:05:34.324Z,22.46
2023-05-23T17:07:33.981Z,0.02
2023-05-23T17:09:33.695Z,0.02
2023-05-23T17:11:34.476Z,0.02
2023-05-23T17:13:34.268Z,0.02
2023-05-23T17:15:33.804Z,0.02
2023-05-23T17:17:34.602Z,0.02
2023-05-23T17:19:34.386Z,19.14
2023-05-23T17:21:34.331Z,19.14
2023-05-23T17:23:33.795Z,19.14
2023-05-23T17:25:33.346Z,0.02
2023-05-23T17:27:34.070Z,0.02
2023-05-23T17:29:33.510Z,0.02
2023-05-23T17:31:34.361Z,0.02
2023-05-23T17:33:34.268Z,0.02
2023-05-23T17:35:34.089Z,0.02
2023-05-23T17:37:35.667Z,21.32
2023-05-23T17:39:34.086Z,21.32
2023-05-23T17:41:34.246Z,21.32
2023-05-23T17:43:33.446Z,0.02
2023-05-23T17:45:33.944Z,0.02
2023-05-23T17:47:33.851Z,0.02
2023-05-23T17:49:55.350Z,0.02
2023-05-23T17:51:33.645Z,0.02
2023-05-23T17:53:35.947Z,0.02
2023-05-23T17:55:34.052Z,0.02
2023-05-23T17:57:33.561Z,0.02
2023-05-23T17:59:34.088Z,0.02
2023-05-23T18:01:36.663Z,20.21
2023-05-23T18:03:33.747Z,20.21
2023-05-23T18:05:34.708Z,20.21
2023-05-23T18:07:33.465Z,20.21
2023-05-23T18:09:34.010Z,20.21
2023-05-23T18:11:33.682Z,20.21
2023-05-23T18:13:34.251Z,0.02
2023-05-23T18:15:33.724Z,0.02
2023-05-23T18:17:34.548Z,0.02
2023-05-23T18:23:33.764Z,21.32
2023-05-23T18:25:34.316Z,19.14
2023-05-23T18:27:34.043Z,19.14
2023-05-23T18:29:33.696Z,19.14
2023-05-23T18:31:34.095Z,21.32
2023-05-23T18:33:34.633Z,21.32
2023-05-23T18:35:38.617Z,21.32
2023-05-23T18:37:35.326Z,24.88
2023-05-23T18:39:35.075Z,24.88
2023-05-23T18:41:37.769Z,24.88
2023-05-23T18:43:33.712Z,0.03
2023-05-23T18:45:34.366Z,0.03
2023-05-23T18:47:34.266Z,0.03
2023-05-23T18:49:34.561Z,0.04
2023-05-23T18:51:34.051Z,0.04
2023-05-23T18:53:33.419Z,0.04
2023-05-23T18:55:33.857Z,44.72
2023-05-23T18:57:33.455Z,44.72
2023-05-23T18:59:33.645Z,44.72
2023-05-23T19:01:37.209Z,0.06
2023-05-23T19:03:34.965Z,0.06
2023-05-23T19:05:34.010Z,0.06
2023-05-23T19:07:33.460Z,0.06
2023-05-23T19:09:33.855Z,0.06
2023-05-23T19:11:33.959Z,0.06
2023-05-23T19:13:34.376Z,0.06
2023-05-23T19:15:33.870Z,0.06
2023-05-23T19:17:34.554Z,0.06
2023-05-23T19:19:34.733Z,0.06
2023-05-23T19:21:33.707Z,0.06
2023-05-23T19:23:49.025Z,0.06
2023-05-23T19:25:33.595Z,56.56
2023-05-23T19:27:34.153Z,56.56
2023-05-23T19:29:33.857Z,56.56
2023-05-23T19:31:33.870Z,52.41
2023-05-23T19:33:34.822Z,52.41
2023-05-23T19:35:35.588Z,52.41
2023-05-23T19:37:34.078Z,0.05
2023-05-23T19:39:33.991Z,0.05
2023-05-23T19:41:33.856Z,0.05
2023-05-23T19:43:34.165Z,54.46
2023-05-23T19:45:33.998Z,54.46
2023-05-23T19:47:33.680Z,54.46
2023-05-23T19:49:34.188Z,56.56
2023-05-23T19:51:41.085Z,56.56
2023-05-23T19:53:33.581Z,56.56
2023-05-23T19:55:37.845Z,58.71
2023-05-23T19:57:33.608Z,58.71
2023-05-23T19:59:34.174Z,58.71
2023-05-23T20:01:37.573Z,60.92
2023-05-23T20:03:33.883Z,60.92
2023-05-23T20:05:34.111Z,60.92
2023-05-23T20:07:33.438Z,65.5
2023-05-23T20:09:33.882Z,65.5
2023-05-23T20:11:34.318Z,65.5
2023-05-23T20:13:33.795Z,67.87
2023-05-23T20:15:51.258Z,67.87
2023-05-23T20:17:34.261Z,67.87
2023-05-23T20:19:33.945Z,0.06
2023-05-23T20:21:33.667Z,0.06
2023-05-23T20:23:34.332Z,0.06
2023-05-23T20:25:34.849Z,0.06
2023-05-23T20:27:33.366Z,0.06
2023-05-23T20:29:33.997Z,0.06
2023-05-23T20:31:34.053Z,0.06
2023-05-23T20:33:37.720Z,0.06
2023-05-23T20:35:33.678Z,0.06
2023-05-23T20:37:34.304Z,0.06
2023-05-23T20:39:33.872Z,0.06
2023-05-23T20:41:36.629Z,0.06
2023-05-23T20:43:33.889Z,63.18
2023-05-23T20:45:33.560Z,63.18
2023-05-23T20:47:36.564Z,63.18
2023-05-23T20:49:34.128Z,0.06
2023-05-23T20:51:34.146Z,0.06
2023-05-23T20:53:36.784Z,0.06
2023-05-23T20:55:34.290Z,67.87
2023-05-23T20:57:33.487Z,67.87
2023-05-23T20:59:34.009Z,67.87
2023-05-23T21:01:37.249Z,0.07
2023-05-23T21:03:34.887Z,0.07
2023-05-23T21:05:33.926Z,0.07
2023-05-23T21:07:34.388Z,75.32
2023-05-23T21:09:33.591Z,75.32
2023-05-23T21:11:39.198Z,75.32
2023-05-23T21:13:34.147Z,77.93
2023-05-23T21:15:33.505Z,77.93
2023-05-23T21:17:34.610Z,77.93
2023-05-23T21:19:34.232Z,0.07
2023-05-23T21:21:34.347Z,0.07
2023-05-23T21:23:33.902Z,0.07
2023-05-23T21:25:34.355Z,0.08
2023-05-23T21:27:34.123Z,0.08
2023-05-23T21:29:35.735Z,0.08
2023-05-23T21:31:52.091Z,0.08
2023-05-23T21:33:34.032Z,0.08
2023-05-23T21:35:54.471Z,0.08
2023-05-23T21:37:34.182Z,0.08
2023-05-23T21:39:49.921Z,0.08
2023-05-23T21:41:33.607Z,0.08
2023-05-23T21:43:34.101Z,0.08
2023-05-23T21:45:36.356Z,0.08
2023-05-23T21:47:34.776Z,0.08
2023-05-23T21:49:33.575Z,0.09
2023-05-23T21:51:34.430Z,0.09
2023-05-23T21:53:34.006Z,0.09
2023-05-23T21:55:33.568Z,0.09
2023-05-23T21:57:33.941Z,0.09
2023-05-23T21:59:33.422Z,0.09
2023-05-23T22:01:36.601Z,97.83
2023-05-23T22:03:34.733Z,97.83
2023-05-23T22:05:33.637Z,97.83
2023-05-23T22:07:33.953Z,0.1
2023-05-23T22:09:33.518Z,0.1
2023-05-23T22:11:34.511Z,0.1
2023-05-23T22:13:34.244Z,0.1
2023-05-23T22:15:33.530Z,0.1
2023-05-23T22:17:34.691Z,0.1
2023-05-23T22:19:38.380Z,0.1
2023-05-23T22:21:33.608Z,0.1
2023-05-23T22:23:36.086Z,0.1
2023-05-23T22:25:33.348Z,0.11
2023-05-23T22:27:34.081Z,0.11
2023-05-23T22:29:33.889Z,0.11
2023-05-23T22:31:36.463Z,117.4
2023-05-23T22:33:34.568Z,117.4
2023-05-23T22:35:33.817Z,117.4
2023-05-23T22:37:34.978Z,0.11
2023-05-23T22:39:33.934Z,0.11
2023-05-23T22:41:33.838Z,0.11
2023-05-23T22:43:34.499Z,0.11
2023-05-23T22:45:33.855Z,0.11
2023-05-23T22:47:34.838Z,0.11
2023-05-23T22:49:33.715Z,120.89
2023-05-23T22:51:34.068Z,120.89
2023-05-23T22:53:34.286Z,120.89
2023-05-23T22:55:33.928Z,120.89
2023-05-23T22:57:33.442Z,120.89
2023-05-23T22:59:34.353Z,120.89
2023-05-23T23:01:41.838Z,0.11
2023-05-23T23:03:35.176Z,0.11
2023-05-23T23:05:33.560Z,0.11
2023-05-23T23:07:33.998Z,0.11
2023-05-23T23:09:33.674Z,0.11
2023-05-23T23:11:34.344Z,0.11
2023-05-23T23:13:33.902Z,120.89
2023-05-23T23:15:36.181Z,120.89
2023-05-23T23:17:34.436Z,120.89
2023-05-23T23:19:34.021Z,0.11
2023-05-23T23:21:34.930Z,0.11
2023-05-23T23:23:33.644Z,0.11
2023-05-23T23:25:33.458Z,120.89
2023-05-23T23:27:34.032Z,120.89
2023-05-23T23:29:33.425Z,120.89
2023-05-23T23:31:34.562Z,0.11
2023-05-23T23:33:33.918Z,0.11
2023-05-23T23:35:34.192Z,0.11
2023-05-23T23:37:33.750Z,0.11
2023-05-23T23:39:34.264Z,0.11
2023-05-23T23:41:33.742Z,0.11
2023-05-23T23:43:34.161Z,0.11
2023-05-23T23:45:33.431Z,0.11
2023-05-23T23:47:34.799Z,0.11
2023-05-23T23:49:33.871Z,120.89
2023-05-23T23:51:33.445Z,120.89
2023-05-23T23:53:33.934Z,120.89
2023-05-23T23:55:33.571Z,124.46
2023-05-23T23:57:34.247Z,124.46
2023-05-23T23:59:33.671Z,124.46
